Airfield :







YOU CAN JOIN US ON...

 
LOGIN :

Register | Disclaimer

   EN    FR    IT 

 









Legend :    VFR   Marginal VFR   IFR   Intensive IFR   Very Intensive IFR
Visi :
Ceiling :
>= 8 km
>= 3000ft
5 to 8 km
1000 to 3000 ft
1500m to 5 km
500 to 1000 ft
800 to 1500m
200 to 500 ft
< 800m
< 200 ft
Symbols :   Thunderstorms  Fog  Heavy snow  Heavy precipitations  Wind > 20 kt






- Airport Elevation : 40 ft
- IATA code : YRF


CYCA - Cartwright

CURRENT METAR :
  • 151200Z AUTO 11011G26KT 1SM -SN VV019 M02/M03 A2967 RMK SLP050

EXPIRED METARs :
  • 151113Z AUTO 10014G24KT 1 3/4SM -SN OVC019 M02/M04 A2973 RMK PRESFR SLP069
  • 151102Z AUTO 10010G23KT 2SM -SN OVC021 M03/M04 A2974 RMK PRESFR SLP073
  • 151047Z AUTO 10009G22KT 2 1/4SM -SN FEW013 OVC027 M03/M04 A2976 RMK PRESFR SLP079
  • 151012Z AUTO 09009G18KT 3SM -SN FEW013 OVC025 M03/M05 A2980 RMK PRESFR SLP093
  • 151001Z AUTO 09009G15KT 3SM -SN FEW013 OVC023 M03/M05 A2981 RMK PRESFR SLP096

TAF AMD TAF CYCA
Valid from the 15 at 10:00 until the 15 at 20:00 UTC


151010Z 1510/1520 10012G22KT 3/4SM -SN BLSN VV008
TEMPO 1510/1517 3SM -SN OVC015
BECMG 1510/1512 10020G30KT
FM151700 12025G35KT 2SM -SN -PL OVC008
PROB30 1518/1520 3SM -FZRA BR RMK FCST BASED ON AUTO OBS. NXT FCST BY 151400Z



MET'MAP, your aeronautical weather chart ! - Copyright ORBIFLY December 2007 - Disclaimer

ORBIFLY MET'MAP TEAM :

Programming & Development : Alexandra Zaïnal
Concept & original design : Baudouin d'Aumeries
Assistance for programming : Marc-Olivier Méhu
Technical & hardware support : Manuel Goepfert

Contact : metmap@orbifly.com




SOURCES & CREDITS :

   NOAA